Terminal Aerodrome Forecast
Issued by NWS

Home | Current Version | Previous Version | Text Only | Print | Product List | Glossary On
Versions: 1 2 3 4 5 6 7 8 9 10 11 12 13 14 15 16 17 18 19 20 21 22 23 24 25 26 27 28 29 30 31 32 33 34 35 36 37 38 39 40 41 42
000
FTUS45 KBOU 291536 AAC
TAFBJC
TAF AMD
KBJC 291536Z 2916/3012 01009KT 1/2SM SN FG BKN006 OVC014
     FM291900 03008KT 1 1/2SM -SN BR OVC008
      TEMPO 2920/2924 3/4SM -SN BR OVC004
     FM300100 03007KT 1SM -SN BR BKN005 OVC010
      TEMPO 3001/3004 1/2SM -SN FZFG OVC004
     FM300700 07005KT 3SM -SN BR SCT004 OVC008=

USA.gov is the U.S. government's official web portal to all federal, state and local government web resources and services.